Logo AVAMET
Benvolgut visitant, si us plau, ingressa Recuperar contrasenya

Inforatge Castelló de la Plana Palau Festa

Dades diàries. Acumulats / Últims 30 dies disponibles

Data Temperatura (°C) Humitat rel. (%) Pressió rel. (hPa) Vent (km/h) Precipitació
Mínima Mitjana Màxima Amplitud
tèrmica
Mínima Mitjana Màxima Mínima Mitjana Màxima Predom. Mitjana Ràfega
màxima
Total
(mm)
Índex-n
Mínima Mitjana Màxima Mínima Mitjana Màxima n
0 a 1
P0 max
mm 5'
Dades mensuals acumulades fins l'últim dia disponible
01/2020 4,3 7,2 9,7 10,9 12,1 15,5 19,3 15,0 37 73 91 1.014 1.016 1.032   4,3 53,1 0,0
Dades anuals acumulades fins l'últim dia disponible
2020 4,3 7,2 9,7 10,9 12,1 15,5 19,3 15,0 37 73 91 1.014 1.016 1.032   4,3 53,1 0,0
Últims 30 dies disponibles
18-01-2020 8,8     12,6     16,6 7,8 51 62 77 1.019 1.026 1.032 W 6,6 41,8 0,0
17-01-2020 8,0     13,3     19,3 11,3 37 62 83 1.025 1.027 1.032 W 5,1 30,6 0,0
16-01-2020 8,7     12,2     18,8 10,1 49 73 82 1.026 1.027 1.029 W 2,9 19,3 0,0
15-01-2020 5,7     9,8     14,3 8,6 54 74 85 1.014 1.016 1.027 WSW 3,1 14,5 0,0
14-01-2020 5,8     9,5     14,5 8,7 61 72 81 1.014 1.014 1.014 WSW 3,5 17,7 0,0
13-01-2020 4,3     9,1     14,6 10,3 41 67 83 1.014 1.014 1.014 WSW 4,0 19,3 0,0
12-01-2020 4,7     9,3     13,9 9,2 69 77 84 1.014 1.014 1.014 W 4,7 19,3 0,0
11-01-2020 7,7     11,1     16,2 8,5 42 61 76 1.014 1.014 1.014 WSW 5,3 25,7 0,0
10-01-2020 8,7     12,2     15,3 6,6 44 63 85 1.014 1.014 1.014 NNE 7,1 53,1 0,0
09-01-2020 6,7     10,8     15,0 8,3 63 77 84 1.014 1.014 1.014 SSE 4,3 24,1 0,0
08-01-2020 6,2     11,2     17,2 11,0 61 80 91 1.014 1.014 1.014 WSW 3,9 16,1 0,0
07-01-2020 7,5     10,8     15,0 7,5 66 79 86 1.014 1.014 1.014 SW 3,5 20,9 0,0
06-01-2020 6,7     10,4     14,8 8,1 68 79 84 1.014 1.014 1.014 WSW 3,5 16,1 0,0
05-01-2020 7,5     11,2     16,7 9,2 49 69 79 1.014 1.014 1.014 W 5,1 20,9 0,0
04-01-2020 6,6     11,1     17,3 10,7 49 74 87 1.014 1.014 1.014 WSW 5,6 22,5 0,0
03-01-2020 6,8     10,1     13,9 7,1 72 81 86 1.014 1.014 1.014 SW 2,7 14,5 0,0
02-01-2020 9,7     11,6     13,8 4,1 70 78 86 1.014 1.014 1.014 W 3,7 19,3 0,0
01-01-2020 8,9     10,7     12,1 3,2 81 84 86 1.014 1.014 1.014 ENE 2,6 14,5 0,0
31-12-2019 8,9     11,0     14,5 5,6 71 82 87 1.014 1.014 1.014 S 3,0 20,9 0,0
30-12-2019 9,2     11,9     15,7 6,5 64 75 82 1.014 1.014 1.014 SSE 4,2 22,5 0,0
29-12-2019 8,6     11,6     15,6 7,0 62 76 82 1.014 1.014 1.014 W 5,1 22,5 0,0
28-12-2019 6,7     10,8     15,6 8,9 65 81 88 1.014 1.014 1.014 SW 3,2 17,7 0,0
27-12-2019 9,3     12,4     15,9 6,6 59 75 89 1.014 1.014 1.014 ENE 4,5 19,3 0,0
26-12-2019 10,2     14,2     19,7 9,5 55 77 87 1.014 1.014 1.014 NNE 3,4 16,1 0,0
25-12-2019 10,8     14,6     21,1 10,3 50 75 89 1.014 1.014 1.014 W 2,3 14,5 0,0
24-12-2019 11,4     16,7     22,0 10,6 49 63 85 1.014 1.014 1.014 SSE 5,6 38,6 0,0
23-12-2019 11,1     16,1     20,2 9,1 35 53 71 1.014 1.014 1.014 W 4,8 37,0 0,0
22-12-2019 17,7     19,6     22,1 4,4 37 45 54 1.014 1.014 1.014 W 12,9 53,1 0,0
21-12-2019 16,1     20,6     25,8 9,7 38 59 77 1.014 1.014 1.014 SW 13,7 69,2 0,0
20-12-2019 12,7     18,0     22,3 9,6 45 67 85 1.014 1.014 1.014 S 16,7 72,4 0,0
Últims 13 mesos disponibles
12/2019 6,7 10,9 17,7 14,2 13,4 17,9 25,8 19,1 45 70 85 1.014 1.014 1.014 W 6,8 72,4 157,0
11/2019 7,8 12,0 20,2 15,8 15,3 20,0 27,7 19,9 39 54 76 1.014 1.014 1.014 W 8,0 61,2 4,8
10/2019 10,8 16,9 22,1 20,3 17,3 24,0 28,2 17,4 48 70 82 1.014 1.014 1.014 S 6,0 53,1 19,8
09/2019 15,3 20,7 23,9 23,7 21,9 26,8 30,6 15,3 50 70 82 1.014 1.015 1.016 SE 7,7 56,3 65,6
08/2019 18,5 22,7 26,4 25,9 25,7 29,0 31,9 13,4 54 72 79 1.016 1.016 1.016 S 6,7 61,1 17,8
07/2019 21,6 23,1 25,3 26,5 27,1 29,4 33,2 11,6 49 67 78 1.016 1.016 1.016 SE 7,1 51,9 8,6
06/2019 12,8 18,9 23,1 22,4 20,7 25,8 35,9 23,1 41 64 79 1.016 1.016 1.016 S 8,1 59,6 0,0
05/2019 10,4 14,6 17,7 18,0 17,3 21,5 28,2 17,8 50 67 81 1.016 1.016 1.016 SE 7,8 53,7 13,0
04/2019 7,8 12,1 14,5 15,5 15,5 19,3 26,4 18,6 44 63 85 1.016 1.016 1.016 SSO 10,6 66,7 44,0
03/2019 7,7 10,4 13,2 14,5 13,4 18,8 25,2 17,5 41 59 78 1.016 1.016 1.016 S 7,0 53,7 10,4
02/2019 2,3 7,9 11,8 12,3 12,9 16,9 22,9 20,6 28 65 79 1.016 1.016 1.016 SSO 6,3 74,1 0,0
01/2019 3,7 7,2 10,4 11,6 12,7 16,5 22,5 18,8 37 57 78 1.016 1.016 1.016 SO 7,0 79,6 0,6
12/2018 6,6 10,0 12,7 13,6 14,1 18,0 24,2 17,6 51 69 83 1.016 1.016 1.016 SSO 4,1 68,5 7,2
Tots els anys disponibles
2019 2,3 14,8 26,4 18,4 12,7 22,2 35,9 33,6 28 65 85 1.014 1.016 1.016 S 7,4 79,6 341,6
Temperatura (°C)
Humitat relativa (%)
Velocitat del vent i ràfega màxima (km/h)
Direcció del vent (°)
Pressió (hPa)
Precipitació (mm)
Nota sobre les dades: s'avisa a l'usuari de la provisionalitat i no oficialitat d'aquestes dades
Logo AVAMET blanc
Web allotjada a Sollutia
Llicència de Creative CommonsLa web d'AVAMET i els seus continguts estan subjectes a una llicència de
Reconeixement - No Comercial - Compartir igual
Últimes estacions: Xixona - Els Ameradors (Soci), Agres - El Tossal (Soci), Xàbia - Bevenguts (MeteoXàbia), Llíria (Aj. Soci/Inforatge), Orihuela - Lo Capitán, Cox & Guardamar del Segura - horta (Meteorihuela), l'Alcúdia - Carriona & el Real de Gandia (Inforatge), Benicàssim - les Vil·les (Soci),  l'Alfàs del Pi - l'Albir (Soci), - - -